Terminal Aerodrome Forecast
Issued by NWS Cleveland, OH

Home | Current Version | Previous Version | Graphics & Text | Print | Product List | Glossary Off
Versions: 1 2 3 4 5 6 7 8 9 10 11 12 13 14

100
FTUS41 KCLE 261729
TAFTOL
TAF
KTOL 261729Z 2618/2718 06006KT P6SM FEW045 SCT250
     FM270000 VRB03KT P6SM SKC
     FM271000 VRB03KT 4SM BR SKC
     FM271300 28004KT P6SM SKC=

USA.gov is the U.S. government's official web portal to all federal, state and local government web resources and services.